sensor_id;sensor_type;location;lat;lon;timestamp;P1;durP1;ratioP1;P2;durP2;ratioP2
77204;SDS011;67992;46.618;18.850;2023-02-28T00:00:28;0.10;;;0.10;;
77204;SDS011;67992;46.618;18.850;2023-02-28T00:02:53;0.00;;;0.00;;
77204;SDS011;67992;46.618;18.850;2023-02-28T00:05:22;0.00;;;0.00;;
77204;SDS011;67992;46.618;18.850;2023-02-28T00:07:49;0.10;;;0.10;;
77204;SDS011;67992;46.618;18.850;2023-02-28T00:10:16;0.00;;;0.00;;
77204;SDS011;67992;46.618;18.850;2023-02-28T00:12:46;0.00;;;0.00;;
77204;SDS011;67992;46.618;18.850;2023-02-28T00:15:14;0.10;;;0.10;;
77204;SDS011;67992;46.618;18.850;2023-02-28T00:17:40;0.00;;;0.00;;
77204;SDS011;67992;46.618;18.850;2023-02-28T00:20:06;0.00;;;0.00;;
77204;SDS011;67992;46.618;18.850;2023-02-28T00:22:38;0.10;;;0.10;;
77204;SDS011;67992;46.618;18.850;2023-02-28T00:25:06;0.00;;;0.00;;
77204;SDS011;67992;46.618;18.850;2023-02-28T00:27:32;0.10;;;0.10;;
77204;SDS011;67992;46.618;18.850;2023-02-28T00:29:59;0.00;;;0.00;;
77204;SDS011;67992;46.618;18.850;2023-02-28T00:32:25;0.00;;;0.00;;
77204;SDS011;67992;46.618;18.850;2023-02-28T00:34:50;0.00;;;0.00;;
77204;SDS011;67992;46.618;18.850;2023-02-28T00:37:16;0.05;;;0.05;;
77204;SDS011;67992;46.618;18.850;2023-02-28T00:39:43;0.05;;;0.05;;
77204;SDS011;67992;46.618;18.850;2023-02-28T00:42:08;0.00;;;0.00;;
77204;SDS011;67992;46.618;18.850;2023-02-28T00:44:34;0.00;;;0.00;;
77204;SDS011;67992;46.618;18.850;2023-02-28T00:46:59;0.00;;;0.00;;
77204;SDS011;67992;46.618;18.850;2023-02-28T00:49:26;0.00;;;0.00;;
77204;SDS011;67992;46.618;18.850;2023-02-28T00:51:53;0.00;;;0.00;;
77204;SDS011;67992;46.618;18.850;2023-02-28T00:54:19;0.00;;;0.00;;
77204;SDS011;67992;46.618;18.850;2023-02-28T00:56:46;0.00;;;0.00;;
77204;SDS011;67992;46.618;18.850;2023-02-28T00:59:15;0.17;;;0.03;;
77204;SDS011;67992;46.618;18.850;2023-02-28T01:01:42;0.00;;;0.00;;
77204;SDS011;67992;46.618;18.850;2023-02-28T01:04:09;0.08;;;0.05;;
77204;SDS011;67992;46.618;18.850;2023-02-28T01:06:34;0.10;;;0.10;;
77204;SDS011;67992;46.618;18.850;2023-02-28T01:09:01;0.00;;;0.00;;
77204;SDS011;67992;46.618;18.850;2023-02-28T01:11:28;0.00;;;0.00;;
77204;SDS011;67992;46.618;18.850;2023-02-28T01:13:54;0.10;;;0.10;;
77204;SDS011;67992;46.618;18.850;2023-02-28T01:16:19;0.00;;;0.00;;
77204;SDS011;67992;46.618;18.850;2023-02-28T01:18:45;0.10;;;0.10;;
77204;SDS011;67992;46.618;18.850;2023-02-28T01:21:12;0.00;;;0.00;;
77204;SDS011;67992;46.618;18.850;2023-02-28T01:23:39;0.20;;;0.20;;
77204;SDS011;67992;46.618;18.850;2023-02-28T01:26:06;0.00;;;0.00;;
77204;SDS011;67992;46.618;18.850;2023-02-28T01:28:33;0.00;;;0.00;;
77204;SDS011;67992;46.618;18.850;2023-02-28T01:30:59;0.05;;;0.05;;
77204;SDS011;67992;46.618;18.850;2023-02-28T01:33:25;0.00;;;0.00;;
77204;SDS011;67992;46.618;18.850;2023-02-28T01:35:57;0.10;;;0.10;;
77204;SDS011;67992;46.618;18.850;2023-02-28T01:40:52;0.00;;;0.00;;
77204;SDS011;67992;46.618;18.850;2023-02-28T01:45:50;0.00;;;0.00;;
77204;SDS011;67992;46.618;18.850;2023-02-28T01:48:19;0.20;;;0.20;;
77204;SDS011;67992;46.618;18.850;2023-02-28T01:50:48;0.00;;;0.00;;
77204;SDS011;67992;46.618;18.850;2023-02-28T01:53:16;0.10;;;0.10;;
77204;SDS011;67992;46.618;18.850;2023-02-28T01:55:46;0.00;;;0.00;;
77204;SDS011;67992;46.618;18.850;2023-02-28T01:58:15;0.10;;;0.10;;
77204;SDS011;67992;46.618;18.850;2023-02-28T02:00:41;0.00;;;0.00;;
77204;SDS011;67992;46.618;18.850;2023-02-28T02:03:12;0.10;;;0.10;;
77204;SDS011;67992;46.618;18.850;2023-02-28T02:05:40;0.10;;;0.08;;
77204;SDS011;67992;46.618;18.850;2023-02-28T02:08:16;0.00;;;0.00;;
77204;SDS011;67992;46.618;18.850;2023-02-28T02:10:51;0.10;;;0.10;;
77204;SDS011;67992;46.618;18.850;2023-02-28T02:15:48;0.00;;;0.00;;
77204;SDS011;67992;46.618;18.850;2023-02-28T02:18:26;0.00;;;0.00;;
77204;SDS011;67992;46.618;18.850;2023-02-28T02:27:08;0.15;;;0.10;;
77204;SDS011;67992;46.618;18.850;2023-02-28T02:37:47;0.00;;;0.00;;
77204;SDS011;67992;46.618;18.850;2023-02-28T02:40:15;0.00;;;0.00;;
77204;SDS011;67992;46.618;18.850;2023-02-28T02:42:52;0.00;;;0.00;;
77204;SDS011;67992;46.618;18.850;2023-02-28T02:45:37;0.00;;;0.00;;
77204;SDS011;67992;46.618;18.850;2023-02-28T02:48:08;0.00;;;0.00;;
77204;SDS011;67992;46.618;18.850;2023-02-28T02:50:39;0.00;;;0.00;;
77204;SDS011;67992;46.618;18.850;2023-02-28T02:53:09;0.00;;;0.00;;
77204;SDS011;67992;46.618;18.850;2023-02-28T02:55:38;0.00;;;0.00;;
77204;SDS011;67992;46.618;18.850;2023-02-28T02:58:09;0.00;;;0.00;;
77204;SDS011;67992;46.618;18.850;2023-02-28T03:00:49;0.00;;;0.00;;
77204;SDS011;67992;46.618;18.850;2023-02-28T03:03:19;0.00;;;0.00;;
77204;SDS011;67992;46.618;18.850;2023-02-28T03:05:54;0.00;;;0.00;;
77204;SDS011;67992;46.618;18.850;2023-02-28T03:08:21;0.10;;;0.10;;
77204;SDS011;67992;46.618;18.850;2023-02-28T03:10:50;0.00;;;0.00;;
77204;SDS011;67992;46.618;18.850;2023-02-28T03:24:30;0.00;;;0.00;;
77204;SDS011;67992;46.618;18.850;2023-02-28T03:35:23;0.00;;;0.00;;
77204;SDS011;67992;46.618;18.850;2023-02-28T03:37:58;0.00;;;0.00;;
77204;SDS011;67992;46.618;18.850;2023-02-28T03:40:30;0.00;;;0.00;;
77204;SDS011;67992;46.618;18.850;2023-02-28T03:45:35;0.00;;;0.00;;
77204;SDS011;67992;46.618;18.850;2023-02-28T03:48:09;0.00;;;0.00;;
77204;SDS011;67992;46.618;18.850;2023-02-28T03:50:44;0.10;;;0.10;;
77204;SDS011;67992;46.618;18.850;2023-02-28T03:53:28;0.00;;;0.00;;
77204;SDS011;67992;46.618;18.850;2023-02-28T03:56:05;0.10;;;0.10;;
77204;SDS011;67992;46.618;18.850;2023-02-28T03:58:47;0.00;;;0.00;;
77204;SDS011;67992;46.618;18.850;2023-02-28T04:06:15;0.00;;;0.00;;
77204;SDS011;67992;46.618;18.850;2023-02-28T04:08:43;0.30;;;0.30;;
77204;SDS011;67992;46.618;18.850;2023-02-28T04:11:19;0.20;;;0.20;;
77204;SDS011;67992;46.618;18.850;2023-02-28T04:13:48;0.10;;;0.10;;
77204;SDS011;67992;46.618;18.850;2023-02-28T04:16:14;0.10;;;0.08;;
77204;SDS011;67992;46.618;18.850;2023-02-28T04:18:41;0.00;;;0.00;;
77204;SDS011;67992;46.618;18.850;2023-02-28T04:21:08;0.15;;;0.15;;
77204;SDS011;67992;46.618;18.850;2023-02-28T04:23:34;0.00;;;0.00;;
77204;SDS011;67992;46.618;18.850;2023-02-28T04:26:00;0.00;;;0.00;;
77204;SDS011;67992;46.618;18.850;2023-02-28T04:28:26;0.00;;;0.00;;
77204;SDS011;67992;46.618;18.850;2023-02-28T04:30:58;0.20;;;0.20;;
77204;SDS011;67992;46.618;18.850;2023-02-28T04:33:28;0.15;;;0.15;;
77204;SDS011;67992;46.618;18.850;2023-02-28T04:36:01;0.10;;;0.10;;
77204;SDS011;67992;46.618;18.850;2023-02-28T04:38:32;0.00;;;0.00;;
77204;SDS011;67992;46.618;18.850;2023-02-28T04:40:59;0.00;;;0.00;;
77204;SDS011;67992;46.618;18.850;2023-02-28T04:43:29;0.00;;;0.00;;
77204;SDS011;67992;46.618;18.850;2023-02-28T04:45:55;0.00;;;0.00;;
77204;SDS011;67992;46.618;18.850;2023-02-28T04:48:25;0.00;;;0.00;;
77204;SDS011;67992;46.618;18.850;2023-02-28T04:50:52;0.05;;;0.05;;
77204;SDS011;67992;46.618;18.850;2023-02-28T04:53:18;0.00;;;0.00;;
77204;SDS011;67992;46.618;18.850;2023-02-28T04:55:44;0.00;;;0.00;;
77204;SDS011;67992;46.618;18.850;2023-02-28T04:58:10;0.10;;;0.10;;
77204;SDS011;67992;46.618;18.850;2023-02-28T05:00:36;0.10;;;0.10;;
77204;SDS011;67992;46.618;18.850;2023-02-28T05:03:05;0.00;;;0.00;;
77204;SDS011;67992;46.618;18.850;2023-02-28T05:05:32;0.15;;;0.15;;
77204;SDS011;67992;46.618;18.850;2023-02-28T05:07:58;0.00;;;0.00;;
77204;SDS011;67992;46.618;18.850;2023-02-28T05:10:24;0.00;;;0.00;;
77204;SDS011;67992;46.618;18.850;2023-02-28T05:12:50;0.05;;;0.05;;
77204;SDS011;67992;46.618;18.850;2023-02-28T05:15:16;0.00;;;0.00;;
77204;SDS011;67992;46.618;18.850;2023-02-28T05:17:42;0.10;;;0.10;;
77204;SDS011;67992;46.618;18.850;2023-02-28T05:20:08;0.00;;;0.00;;
77204;SDS011;67992;46.618;18.850;2023-02-28T05:22:36;0.03;;;0.03;;
77204;SDS011;67992;46.618;18.850;2023-02-28T05:25:05;0.00;;;0.00;;
77204;SDS011;67992;46.618;18.850;2023-02-28T05:27:31;0.00;;;0.00;;
77204;SDS011;67992;46.618;18.850;2023-02-28T05:29:57;0.00;;;0.00;;
77204;SDS011;67992;46.618;18.850;2023-02-28T05:32:24;0.05;;;0.05;;
77204;SDS011;67992;46.618;18.850;2023-02-28T05:34:49;0.08;;;0.08;;
77204;SDS011;67992;46.618;18.850;2023-02-28T05:37:15;0.03;;;0.03;;
77204;SDS011;67992;46.618;18.850;2023-02-28T05:39:41;0.08;;;0.00;;
77204;SDS011;67992;46.618;18.850;2023-02-28T05:42:07;0.00;;;0.00;;
77204;SDS011;67992;46.618;18.850;2023-02-28T05:44:34;0.10;;;0.10;;
77204;SDS011;67992;46.618;18.850;2023-02-28T05:47:00;0.00;;;0.00;;
77204;SDS011;67992;46.618;18.850;2023-02-28T05:49:25;0.00;;;0.00;;
77204;SDS011;67992;46.618;18.850;2023-02-28T05:51:51;0.10;;;0.10;;
77204;SDS011;67992;46.618;18.850;2023-02-28T05:54:16;0.00;;;0.00;;
77204;SDS011;67992;46.618;18.850;2023-02-28T05:56:42;0.00;;;0.00;;
77204;SDS011;67992;46.618;18.850;2023-02-28T05:59:10;0.00;;;0.00;;
77204;SDS011;67992;46.618;18.850;2023-02-28T06:01:41;0.00;;;0.00;;
77204;SDS011;67992;46.618;18.850;2023-02-28T06:04:13;0.00;;;0.00;;
77204;SDS011;67992;46.618;18.850;2023-02-28T06:06:47;0.10;;;0.10;;
77204;SDS011;67992;46.618;18.850;2023-02-28T06:09:13;0.10;;;0.10;;
77204;SDS011;67992;46.618;18.850;2023-02-28T06:11:39;0.03;;;0.03;;
77204;SDS011;67992;46.618;18.850;2023-02-28T06:14:04;0.08;;;0.08;;
77204;SDS011;67992;46.618;18.850;2023-02-28T06:16:31;0.00;;;0.00;;
77204;SDS011;67992;46.618;18.850;2023-02-28T06:19:01;0.00;;;0.00;;
77204;SDS011;67992;46.618;18.850;2023-02-28T06:21:28;0.00;;;0.00;;
77204;SDS011;67992;46.618;18.850;2023-02-28T06:23:56;0.00;;;0.00;;
77204;SDS011;67992;46.618;18.850;2023-02-28T06:26:22;0.00;;;0.00;;
77204;SDS011;67992;46.618;18.850;2023-02-28T06:28:49;0.10;;;0.10;;
77204;SDS011;67992;46.618;18.850;2023-02-28T06:31:20;0.00;;;0.00;;
77204;SDS011;67992;46.618;18.850;2023-02-28T06:33:47;0.00;;;0.00;;
77204;SDS011;67992;46.618;18.850;2023-02-28T06:36:13;0.00;;;0.00;;
77204;SDS011;67992;46.618;18.850;2023-02-28T06:38:40;0.08;;;0.08;;
77204;SDS011;67992;46.618;18.850;2023-02-28T06:41:07;0.03;;;0.03;;
77204;SDS011;67992;46.618;18.850;2023-02-28T06:43:35;0.08;;;0.08;;
77204;SDS011;67992;46.618;18.850;2023-02-28T06:48:29;0.10;;;0.10;;
77204;SDS011;67992;46.618;18.850;2023-02-28T06:51:05;0.10;;;0.10;;
77204;SDS011;67992;46.618;18.850;2023-02-28T06:53:35;0.20;;;0.20;;
77204;SDS011;67992;46.618;18.850;2023-02-28T06:56:05;0.10;;;0.10;;
77204;SDS011;67992;46.618;18.850;2023-02-28T06:58:35;0.20;;;0.20;;
77204;SDS011;67992;46.618;18.850;2023-02-28T07:01:01;0.13;;;0.13;;
77204;SDS011;67992;46.618;18.850;2023-02-28T07:03:27;0.10;;;0.00;;
77204;SDS011;67992;46.618;18.850;2023-02-28T07:05:53;0.10;;;0.10;;
77204;SDS011;67992;46.618;18.850;2023-02-28T07:08:21;0.00;;;0.00;;
77204;SDS011;67992;46.618;18.850;2023-02-28T07:10:47;0.10;;;0.10;;
77204;SDS011;67992;46.618;18.850;2023-02-28T07:13:17;0.10;;;0.10;;
77204;SDS011;67992;46.618;18.850;2023-02-28T07:15:42;0.10;;;0.10;;
77204;SDS011;67992;46.618;18.850;2023-02-28T07:18:08;0.00;;;0.00;;
77204;SDS011;67992;46.618;18.850;2023-02-28T07:20:33;0.08;;;0.08;;
77204;SDS011;67992;46.618;18.850;2023-02-28T07:22:59;0.10;;;0.10;;
77204;SDS011;67992;46.618;18.850;2023-02-28T07:25:25;0.10;;;0.10;;
77204;SDS011;67992;46.618;18.850;2023-02-28T07:27:53;0.00;;;0.00;;
77204;SDS011;67992;46.618;18.850;2023-02-28T07:30:19;0.10;;;0.10;;
77204;SDS011;67992;46.618;18.850;2023-02-28T07:32:45;0.00;;;0.00;;
77204;SDS011;67992;46.618;18.850;2023-02-28T07:35:11;0.10;;;0.10;;
77204;SDS011;67992;46.618;18.850;2023-02-28T07:37:36;0.15;;;0.15;;
77204;SDS011;67992;46.618;18.850;2023-02-28T07:40:05;0.10;;;0.10;;
77204;SDS011;67992;46.618;18.850;2023-02-28T07:42:34;0.00;;;0.00;;
77204;SDS011;67992;46.618;18.850;2023-02-28T07:45:00;0.08;;;0.08;;
77204;SDS011;67992;46.618;18.850;2023-02-28T07:47:26;0.00;;;0.00;;
77204;SDS011;67992;46.618;18.850;2023-02-28T07:49:51;0.00;;;0.00;;
77204;SDS011;67992;46.618;18.850;2023-02-28T07:52:17;0.10;;;0.10;;
77204;SDS011;67992;46.618;18.850;2023-02-28T07:54:43;0.03;;;0.03;;
77204;SDS011;67992;46.618;18.850;2023-02-28T07:57:08;0.08;;;0.08;;
77204;SDS011;67992;46.618;18.850;2023-02-28T07:59:34;0.00;;;0.00;;
77204;SDS011;67992;46.618;18.850;2023-02-28T08:01:59;0.10;;;0.10;;
77204;SDS011;67992;46.618;18.850;2023-02-28T08:04:25;0.00;;;0.00;;
77204;SDS011;67992;46.618;18.850;2023-02-28T08:06:51;0.08;;;0.08;;
77204;SDS011;67992;46.618;18.850;2023-02-28T08:09:18;0.00;;;0.00;;
77204;SDS011;67992;46.618;18.850;2023-02-28T08:11:44;0.08;;;0.08;;
77204;SDS011;67992;46.618;18.850;2023-02-28T08:14:09;0.00;;;0.00;;
77204;SDS011;67992;46.618;18.850;2023-02-28T08:16:35;0.00;;;0.00;;
77204;SDS011;67992;46.618;18.850;2023-02-28T08:19:00;0.08;;;0.08;;
77204;SDS011;67992;46.618;18.850;2023-02-28T08:21:28;0.08;;;0.08;;
77204;SDS011;67992;46.618;18.850;2023-02-28T08:23:54;0.00;;;0.00;;
77204;SDS011;67992;46.618;18.850;2023-02-28T08:26:21;0.00;;;0.00;;
77204;SDS011;67992;46.618;18.850;2023-02-28T08:28:47;0.00;;;0.00;;
77204;SDS011;67992;46.618;18.850;2023-02-28T08:31:14;0.10;;;0.10;;
77204;SDS011;67992;46.618;18.850;2023-02-28T08:33:41;0.00;;;0.00;;
77204;SDS011;67992;46.618;18.850;2023-02-28T08:36:08;0.00;;;0.00;;
77204;SDS011;67992;46.618;18.850;2023-02-28T08:38:34;0.10;;;0.10;;
77204;SDS011;67992;46.618;18.850;2023-02-28T08:41:02;0.00;;;0.00;;
77204;SDS011;67992;46.618;18.850;2023-02-28T08:43:32;0.10;;;0.10;;
77204;SDS011;67992;46.618;18.850;2023-02-28T08:46:01;0.10;;;0.10;;
77204;SDS011;67992;46.618;18.850;2023-02-28T08:48:28;0.00;;;0.00;;
77204;SDS011;67992;46.618;18.850;2023-02-28T08:50:58;0.10;;;0.10;;
77204;SDS011;67992;46.618;18.850;2023-02-28T08:53:28;0.00;;;0.00;;
77204;SDS011;67992;46.618;18.850;2023-02-28T08:56:04;0.00;;;0.00;;
77204;SDS011;67992;46.618;18.850;2023-02-28T08:58:35;0.00;;;0.00;;
77204;SDS011;67992;46.618;18.850;2023-02-28T09:01:07;0.10;;;0.10;;
77204;SDS011;67992;46.618;18.850;2023-02-28T09:03:34;0.00;;;0.00;;
77204;SDS011;67992;46.618;18.850;2023-02-28T09:06:00;0.00;;;0.00;;
77204;SDS011;67992;46.618;18.850;2023-02-28T09:08:27;0.05;;;0.05;;
77204;SDS011;67992;46.618;18.850;2023-02-28T09:10:53;0.00;;;0.00;;
77204;SDS011;67992;46.618;18.850;2023-02-28T09:13:22;0.08;;;0.08;;
77204;SDS011;67992;46.618;18.850;2023-02-28T09:15:47;0.08;;;0.00;;
77204;SDS011;67992;46.618;18.850;2023-02-28T09:18:13;0.00;;;0.00;;
77204;SDS011;67992;46.618;18.850;2023-02-28T09:20:39;0.05;;;0.05;;
77204;SDS011;67992;46.618;18.850;2023-02-28T09:23:10;0.10;;;0.10;;
77204;SDS011;67992;46.618;18.850;2023-02-28T09:25:40;0.00;;;0.00;;
77204;SDS011;67992;46.618;18.850;2023-02-28T09:28:14;0.00;;;0.00;;
77204;SDS011;67992;46.618;18.850;2023-02-28T09:30:42;0.10;;;0.10;;
77204;SDS011;67992;46.618;18.850;2023-02-28T09:33:10;0.10;;;0.10;;
77204;SDS011;67992;46.618;18.850;2023-02-28T09:35:35;0.00;;;0.00;;
77204;SDS011;67992;46.618;18.850;2023-02-28T09:38:02;0.10;;;0.10;;
77204;SDS011;67992;46.618;18.850;2023-02-28T09:40:28;0.00;;;0.00;;
77204;SDS011;67992;46.618;18.850;2023-02-28T09:42:55;0.00;;;0.00;;
77204;SDS011;67992;46.618;18.850;2023-02-28T09:48:18;0.00;;;0.00;;
77204;SDS011;67992;46.618;18.850;2023-02-28T09:50:51;0.00;;;0.00;;
77204;SDS011;67992;46.618;18.850;2023-02-28T09:59:02;0.00;;;0.00;;
77204;SDS011;67992;46.618;18.850;2023-02-28T10:10:01;0.10;;;0.10;;
77204;SDS011;67992;46.618;18.850;2023-02-28T10:12:29;0.10;;;0.10;;
77204;SDS011;67992;46.618;18.850;2023-02-28T10:14:58;0.00;;;0.00;;
77204;SDS011;67992;46.618;18.850;2023-02-28T10:17:30;0.00;;;0.00;;
77204;SDS011;67992;46.618;18.850;2023-02-28T10:20:07;0.00;;;0.00;;
77204;SDS011;67992;46.618;18.850;2023-02-28T10:25:25;0.00;;;0.00;;
77204;SDS011;67992;46.618;18.850;2023-02-28T10:27:54;0.00;;;0.00;;
77204;SDS011;67992;46.618;18.850;2023-02-28T10:30:33;0.00;;;0.00;;
77204;SDS011;67992;46.618;18.850;2023-02-28T10:32:59;0.00;;;0.00;;
77204;SDS011;67992;46.618;18.850;2023-02-28T10:35:25;0.00;;;0.00;;
77204;SDS011;67992;46.618;18.850;2023-02-28T10:37:55;0.00;;;0.00;;
77204;SDS011;67992;46.618;18.850;2023-02-28T10:45:37;0.08;;;0.05;;
77204;SDS011;67992;46.618;18.850;2023-02-28T10:48:04;0.00;;;0.00;;
77204;SDS011;67992;46.618;18.850;2023-02-28T10:55:42;0.10;;;0.10;;
77204;SDS011;67992;46.618;18.850;2023-02-28T11:01:15;0.00;;;0.00;;
77204;SDS011;67992;46.618;18.850;2023-02-28T11:03:41;0.00;;;0.00;;
77204;SDS011;67992;46.618;18.850;2023-02-28T11:06:08;0.00;;;0.00;;
77204;SDS011;67992;46.618;18.850;2023-02-28T11:08:44;0.00;;;0.00;;
77204;SDS011;67992;46.618;18.850;2023-02-28T11:11:18;0.00;;;0.00;;
77204;SDS011;67992;46.618;18.850;2023-02-28T11:13:45;0.03;;;0.00;;
77204;SDS011;67992;46.618;18.850;2023-02-28T11:16:13;0.00;;;0.00;;
77204;SDS011;67992;46.618;18.850;2023-02-28T11:18:48;0.00;;;0.00;;
77204;SDS011;67992;46.618;18.850;2023-02-28T11:21:20;0.00;;;0.00;;
77204;SDS011;67992;46.618;18.850;2023-02-28T11:23:50;0.00;;;0.00;;
77204;SDS011;67992;46.618;18.850;2023-02-28T11:26:34;0.00;;;0.00;;
77204;SDS011;67992;46.618;18.850;2023-02-28T11:34:26;0.00;;;0.00;;
77204;SDS011;67992;46.618;18.850;2023-02-28T11:36:53;0.00;;;0.00;;
77204;SDS011;67992;46.618;18.850;2023-02-28T11:39:20;0.00;;;0.00;;
77204;SDS011;67992;46.618;18.850;2023-02-28T11:48:22;0.00;;;0.00;;
77204;SDS011;67992;46.618;18.850;2023-02-28T11:51:05;0.00;;;0.00;;
77204;SDS011;67992;46.618;18.850;2023-02-28T11:59:12;0.08;;;0.08;;
77204;SDS011;67992;46.618;18.850;2023-02-28T12:07:37;0.00;;;0.00;;
77204;SDS011;67992;46.618;18.850;2023-02-28T12:20:49;0.00;;;0.00;;
77204;SDS011;67992;46.618;18.850;2023-02-28T12:28:54;0.00;;;0.00;;
77204;SDS011;67992;46.618;18.850;2023-02-28T12:31:28;0.00;;;0.00;;
77204;SDS011;67992;46.618;18.850;2023-02-28T12:36:26;0.00;;;0.00;;
77204;SDS011;67992;46.618;18.850;2023-02-28T12:41:27;0.00;;;0.00;;
77204;SDS011;67992;46.618;18.850;2023-02-28T12:44:01;0.10;;;0.10;;
77204;SDS011;67992;46.618;18.850;2023-02-28T12:46:39;0.00;;;0.00;;
77204;SDS011;67992;46.618;18.850;2023-02-28T12:49:10;0.00;;;0.00;;
77204;SDS011;67992;46.618;18.850;2023-02-28T12:51:47;0.00;;;0.00;;
77204;SDS011;67992;46.618;18.850;2023-02-28T12:54:25;0.00;;;0.00;;
77204;SDS011;67992;46.618;18.850;2023-02-28T13:00:13;0.00;;;0.00;;
77204;SDS011;67992;46.618;18.850;2023-02-28T13:02:50;0.00;;;0.00;;
77204;SDS011;67992;46.618;18.850;2023-02-28T13:11:41;0.00;;;0.00;;
77204;SDS011;67992;46.618;18.850;2023-02-28T13:17:21;0.00;;;0.00;;
77204;SDS011;67992;46.618;18.850;2023-02-28T13:22:20;0.00;;;0.00;;
77204;SDS011;67992;46.618;18.850;2023-02-28T13:27:47;0.00;;;0.00;;
77204;SDS011;67992;46.618;18.850;2023-02-28T13:33:33;0.00;;;0.00;;
77204;SDS011;67992;46.618;18.850;2023-02-28T13:38:39;0.00;;;0.00;;
77204;SDS011;67992;46.618;18.850;2023-02-28T13:44:04;0.10;;;0.10;;
77204;SDS011;67992;46.618;18.850;2023-02-28T13:47:22;0.00;;;0.00;;
77204;SDS011;67992;46.618;18.850;2023-02-28T13:51:50;0.00;;;0.00;;
77204;SDS011;67992;46.618;18.850;2023-02-28T14:00:02;0.00;;;0.00;;
77204;SDS011;67992;46.618;18.850;2023-02-28T14:05:19;0.00;;;0.00;;
77204;SDS011;67992;46.618;18.850;2023-02-28T14:07:58;0.10;;;0.03;;
77204;SDS011;67992;46.618;18.850;2023-02-28T14:10:32;0.00;;;0.00;;
77204;SDS011;67992;46.618;18.850;2023-02-28T14:13:12;0.00;;;0.00;;
77204;SDS011;67992;46.618;18.850;2023-02-28T14:37:28;0.00;;;0.00;;
77204;SDS011;67992;46.618;18.850;2023-02-28T14:40:00;0.05;;;0.05;;
77204;SDS011;67992;46.618;18.850;2023-02-28T14:44:55;0.00;;;0.00;;
77204;SDS011;67992;46.618;18.850;2023-02-28T14:47:22;0.00;;;0.00;;
77204;SDS011;67992;46.618;18.850;2023-02-28T14:49:50;0.00;;;0.00;;
77204;SDS011;67992;46.618;18.850;2023-02-28T14:55:05;0.00;;;0.00;;
77204;SDS011;67992;46.618;18.850;2023-02-28T14:57:41;0.00;;;0.00;;
77204;SDS011;67992;46.618;18.850;2023-02-28T15:00:23;0.00;;;0.00;;
77204;SDS011;67992;46.618;18.850;2023-02-28T15:02:51;0.00;;;0.00;;
77204;SDS011;67992;46.618;18.850;2023-02-28T15:07:49;0.08;;;0.08;;
77204;SDS011;67992;46.618;18.850;2023-02-28T15:10:27;0.00;;;0.00;;
77204;SDS011;67992;46.618;18.850;2023-02-28T15:13:29;0.00;;;0.00;;
77204;SDS011;67992;46.618;18.850;2023-02-28T15:15:56;0.00;;;0.00;;
77204;SDS011;67992;46.618;18.850;2023-02-28T15:18:39;0.00;;;0.00;;
77204;SDS011;67992;46.618;18.850;2023-02-28T15:21:14;0.00;;;0.00;;
77204;SDS011;67992;46.618;18.850;2023-02-28T15:23:43;0.00;;;0.00;;
77204;SDS011;67992;46.618;18.850;2023-02-28T15:26:19;0.00;;;0.00;;
77204;SDS011;67992;46.618;18.850;2023-02-28T15:29:00;0.00;;;0.00;;
77204;SDS011;67992;46.618;18.850;2023-02-28T15:31:34;0.10;;;0.10;;
77204;SDS011;67992;46.618;18.850;2023-02-28T15:34:06;0.00;;;0.00;;
77204;SDS011;67992;46.618;18.850;2023-02-28T15:36:41;0.10;;;0.10;;
77204;SDS011;67992;46.618;18.850;2023-02-28T15:39:20;0.65;;;0.32;;
77204;SDS011;67992;46.618;18.850;2023-02-28T15:41:48;5.38;;;2.50;;
77204;SDS011;67992;46.618;18.850;2023-02-28T15:44:17;0.93;;;0.88;;
77204;SDS011;67992;46.618;18.850;2023-02-28T15:49:46;2.95;;;2.75;;
77204;SDS011;67992;46.618;18.850;2023-02-28T15:52:16;2.17;;;1.98;;
77204;SDS011;67992;46.618;18.850;2023-02-28T15:54:44;2.33;;;2.13;;
77204;SDS011;67992;46.618;18.850;2023-02-28T15:57:15;2.00;;;1.90;;
77204;SDS011;67992;46.618;18.850;2023-02-28T15:59:49;1.90;;;1.80;;
77204;SDS011;67992;46.618;18.850;2023-02-28T16:02:31;1.70;;;1.60;;
77204;SDS011;67992;46.618;18.850;2023-02-28T16:07:36;1.73;;;1.63;;
77204;SDS011;67992;46.618;18.850;2023-02-28T16:10:08;1.83;;;1.50;;
77204;SDS011;67992;46.618;18.850;2023-02-28T16:12:36;1.10;;;1.10;;
77204;SDS011;67992;46.618;18.850;2023-02-28T16:15:08;1.10;;;1.10;;
77204;SDS011;67992;46.618;18.850;2023-02-28T16:17:45;1.10;;;1.10;;
77204;SDS011;67992;46.618;18.850;2023-02-28T16:20:12;1.10;;;1.10;;
77204;SDS011;67992;46.618;18.850;2023-02-28T16:22:46;1.10;;;1.10;;
77204;SDS011;67992;46.618;18.850;2023-02-28T16:25:12;1.10;;;1.10;;
77204;SDS011;67992;46.618;18.850;2023-02-28T16:27:39;0.88;;;0.88;;
77204;SDS011;67992;46.618;18.850;2023-02-28T16:30:07;0.90;;;0.90;;
77204;SDS011;67992;46.618;18.850;2023-02-28T16:32:40;0.90;;;0.90;;
77204;SDS011;67992;46.618;18.850;2023-02-28T16:35:09;0.85;;;0.85;;
77204;SDS011;67992;46.618;18.850;2023-02-28T16:37:35;0.90;;;0.90;;
77204;SDS011;67992;46.618;18.850;2023-02-28T16:40:01;0.80;;;0.80;;
77204;SDS011;67992;46.618;18.850;2023-02-28T16:42:27;0.70;;;0.70;;
77204;SDS011;67992;46.618;18.850;2023-02-28T16:44:53;0.80;;;0.80;;
77204;SDS011;67992;46.618;18.850;2023-02-28T16:47:20;0.50;;;0.50;;
77204;SDS011;67992;46.618;18.850;2023-02-28T16:49:46;0.50;;;0.50;;
77204;SDS011;67992;46.618;18.850;2023-02-28T16:52:13;0.47;;;0.47;;
77204;SDS011;67992;46.618;18.850;2023-02-28T16:54:40;0.57;;;0.57;;
77204;SDS011;67992;46.618;18.850;2023-02-28T16:57:08;0.35;;;0.35;;
77204;SDS011;67992;46.618;18.850;2023-02-28T16:59:48;0.50;;;0.50;;
77204;SDS011;67992;46.618;18.850;2023-02-28T17:02:16;0.60;;;0.60;;
77204;SDS011;67992;46.618;18.850;2023-02-28T17:04:46;0.30;;;0.30;;
77204;SDS011;67992;46.618;18.850;2023-02-28T17:07:13;0.43;;;0.43;;
77204;SDS011;67992;46.618;18.850;2023-02-28T17:09:44;0.38;;;0.38;;
77204;SDS011;67992;46.618;18.850;2023-02-28T17:12:12;0.20;;;0.20;;
77204;SDS011;67992;46.618;18.850;2023-02-28T17:14:39;0.30;;;0.30;;
77204;SDS011;67992;46.618;18.850;2023-02-28T17:17:06;0.43;;;0.40;;
77204;SDS011;67992;46.618;18.850;2023-02-28T17:19:32;0.60;;;0.60;;
77204;SDS011;67992;46.618;18.850;2023-02-28T17:22:01;0.65;;;0.60;;
77204;SDS011;67992;46.618;18.850;2023-02-28T17:24:28;0.45;;;0.45;;
77204;SDS011;67992;46.618;18.850;2023-02-28T17:26:53;0.30;;;0.30;;
77204;SDS011;67992;46.618;18.850;2023-02-28T17:29:20;0.25;;;0.25;;
77204;SDS011;67992;46.618;18.850;2023-02-28T17:31:46;0.38;;;0.35;;
77204;SDS011;67992;46.618;18.850;2023-02-28T17:34:13;0.30;;;0.30;;
77204;SDS011;67992;46.618;18.850;2023-02-28T17:36:46;0.40;;;0.40;;
77204;SDS011;67992;46.618;18.850;2023-02-28T17:39:13;0.15;;;0.15;;
77204;SDS011;67992;46.618;18.850;2023-02-28T17:41:45;0.20;;;0.20;;
77204;SDS011;67992;46.618;18.850;2023-02-28T17:44:11;0.25;;;0.25;;
77204;SDS011;67992;46.618;18.850;2023-02-28T17:46:37;0.30;;;0.30;;
77204;SDS011;67992;46.618;18.850;2023-02-28T17:49:02;0.20;;;0.20;;
77204;SDS011;67992;46.618;18.850;2023-02-28T17:51:28;0.17;;;0.17;;
77204;SDS011;67992;46.618;18.850;2023-02-28T17:53:54;0.25;;;0.25;;
77204;SDS011;67992;46.618;18.850;2023-02-28T17:56:21;0.20;;;0.20;;
77204;SDS011;67992;46.618;18.850;2023-02-28T17:58:49;0.20;;;0.20;;
77204;SDS011;67992;46.618;18.850;2023-02-28T18:01:15;0.15;;;0.15;;
77204;SDS011;67992;46.618;18.850;2023-02-28T18:03:41;0.10;;;0.10;;
77204;SDS011;67992;46.618;18.850;2023-02-28T18:06:09;0.10;;;0.10;;